AirNav   Air Wisconsin Up To $57,000 Bonus
 
 342 users online  

1AR4 McAlister Airpark
Marble, Arkansas, USA

GOING TO MARBLE?


FAA INFORMATION EFFECTIVE 22 APRIL 2021

Location

FAA Identifier: 1AR4
Lat/Long: 36-09-44.0000N 093-36-26.0000W
36-09.733333N 093-36.433333W
36.1622222,-93.6072222
(estimated)
Elevation: 1300 ft. / 396 m (estimated)
From city: 2 miles NW of MARBLE, AR
Time zone: UTC -5 (UTC -6 during Standard Time)
Zip code: 72740

Airport Operations

Airport use: Private use. Permission required prior to landing
Activation date: 09/2017
Control tower: no
ARTCC: MEMPHIS CENTER
FSS: JONESBORO FLIGHT SERVICE STATION
Attendance: UNATTND
Segmented circle: no

Nearby radio navigation aids

VOR radial/distance  VOR name  Freq  Var
HROr240/21.2HARRISON VOR/DME112.5004E
RZCr097/25.4RAZORBACK VORTAC116.4004E

Airport Services

Runway Information

Runway 17/35

Dimensions: 1800 x 45 ft. / 549 x 14 m
Surface: turf
RUNWAY 17  RUNWAY 35
Traffic pattern: leftleft

Airport Ownership and Management from official FAA records

Ownership: Privately-owned
Owner: JOSEPH H. MCALISTER
P.O. BOX 857
HUNTSVILLE, AR 72740
Phone 479-957-3802
Manager: MCALISTER LODGE LLC
P.O.BOX 857
HUNTSVILLE, AR 72740
Phone 479-957-3802

Additional Remarks

FOR CD CTC RAZORBACK APCH 479-649-2416, WHEN APCH CLSD CTC MEMPHIS ARTCC AT 901-368-8453/8449.

Instrument Procedures

There are no published instrument procedures at 1AR4.

Some nearby airports with instrument procedures:

H34 - Huntsville Municipal Airport (9 nm SW)
4M1 - Carroll County Airport (13 nm N)
KHRO - Boone County Airport (23 nm E)
KASG - Springdale Municipal Airport (25 nm W)
KROG - Rogers Executive Airport - Carter Field (27 nm NW)
 
Loc | Ops | Rwys | IFR | FBO | Links
Com | Nav | Svcs | Stats | Notes
Aerial photo
No photo
 
Airport distance calculator
Flying to McAlister Airpark? Find the distance to fly.

From to 1AR4

Sunrise and sunset
Times for 09-May-2021
 Local
(UTC-5)
 Zulu
(UTC)
Morning civil twilight05:4610:46
Sunrise06:1411:14
Sunset20:0701:07
Evening civil twilight20:3601:36

Current date and time
Zulu (UTC)  09-May-2021 08:42:46
Local (UTC-5)  09-May-2021 03:42:46
 
METAR
KASG 
25nm W 
090148Z 18014G23KT 10SM CLR 23/18 A2972
KROG 
26nm NW 
090758Z AUTO 21017G25KT 10SM FEW040 BKN120 23/17 A2963 RMK AO2 PK WND 20029/0700 LTG DSNT NW-NE TSB32E51RAB15E28 SLP018 P0000 T02280172
KFYV 
28nm W 
090821Z AUTO 17016G27KT 7SM VCTS RA FEW029 SCT038 BKN110 22/18 A2962 RMK AO2 PK WND 20029/0800 LTG DSNT S AND SW RAB0758 PRESFR P0003 T02220178
KBBG 
30nm NE 
090815Z AUTO 22009G16KT 10SM SCT037 22/16 A2962 RMK AO2
KVBT 
32nm W 
090756Z AUTO 20011G21KT 10SM FEW085 SCT120 23/19 A2965 RMK AO2 RAB09E19 SLP029 P0000 T02280189 TSNO
KFWB 
34nm N 
090815Z AUTO 22013G24KT 10SM FEW038 SCT045 BKN110 23/20 A2962 RMK AO2 LTG DSNT W AND NW
KXNA 
34nm W 
090753Z AUTO 19013G23KT 10SM BKN035 BKN120 23/18 A2962 RMK AO2 PK WND 20026/0700 LTG DSNT N AND NE RAB00E09 SLP015 P0000 T02280178
KSLG 
42nm W 
090756Z AUTO 19017G23KT 10SM SCT034 22/18 A2963 RMK AO2 SLP023 T02220183 TSNO
TAF
KHRO 
23nm E 
090533Z 0906/1006 19010G17KT P6SM BKN250 WS020/21048KT FM090900 20020G29KT P6SM VCSH BKN040 OVC060 WS020/22040KT FM091200 21018G25KT P6SM VCSH OVC025 WS020/23047KT FM091500 28015G25KT P6SM VCSH OVC015 FM100000 35009KT P6SM OVC060 AMD NOT SKED
KROG 
26nm NW 
090815Z 0908/1006 21017G25KT P6SM FEW040 BKN120 FM091100 22019G34KT P6SM VCTS BKN018CB FM091800 36011G22KT P6SM BKN022 FM100100 36011KT P6SM BKN050
KFYV 
28nm W 
090703Z 0907/1006 19018G26KT P6SM VCTS BKN040CB WS020/20055KT FM091100 22019G34KT P6SM VCTS BKN018CB FM091800 36011G22KT P6SM BKN022 FM100100 36011KT P6SM BKN050
NOTAMs
Click for the latest NOTAMs
NOTAMs are issued by the DoD/FAA and will open in a separate window not controlled by AirNav.

 

 
 

Would you like to see your business listed on this page?

 If your business provides an interesting product or service to pilots, flight crews, aircraft, or users of the McAlister Airpark, you should consider listing it here.  To start the listing process, click on the button below
 
Add a business
 

Other Pages about McAlister Airpark

Update a link
 
Copyright © AirNav, LLC. All rights reserved. Privacy Policy  Contact